In Rescue
 
Open Full Screen Window  High Contrast Mode
Wind Gusting 00 knots
08
January 24, 2020 9:49 PM EST
Present Weather: Unknown Precipitation
Weather Information
Wind Direction
  100 °
Wind Speed
  08 kt (9 mph)
Wind Gust
  00 kt (0 mph)
Altimeter
29.78 in
Visibility
10 SM
Temperature
00° C
32° F
Dewpoint
-01° C
30° F
Humidity
93%
Sky Condition
Overcast @ 400 ft
LIFR

METAR KCAD 250249Z AUTO 10008KT 10SM UP OVC004 00/M01 A2978 RMK AO2 T00021008

FAA Disclaimer: The data displayed is for advisory purposes only and is not to be used for flight planning or operations.